North Plains, Oregon
Current Conditions -  °F | °C
As of 5:24 AM on Friday 28 Nov 2014 (Local Time) from KHIO Reporting Station
Light Rain Light Rain  
Wind Chill: 52°   Ceiling: 700
Heat Index: 52°   Visibility: 5mi
Dew Point: 52°   Wind: 8mph
Humidity: 100%   Direction: 170°S
Pressure: 29.67"   Gusts: NA
Location:  45.6°N, 122.99°W
Report Text: KHIO 281324Z 17007KT 5SM -RA BR BKN007 OVC012 11/11 A2967 RMK AO2 P0003 T01110111
Loading
Personal Weather Stations






























Interactive Weather Map New forecast layout! Learn more

10-Day Weather Forecast

Advertisements
Track Severe Weather on mobile